createdAt,value
2019-02-15T00:00:23.024Z,5.85
2019-02-15T00:02:52.489Z,5.82
2019-02-15T00:05:21.885Z,5.81
2019-02-15T00:07:51.277Z,5.80
2019-02-15T00:10:20.688Z,5.79
2019-02-15T00:12:50.255Z,5.79
2019-02-15T00:15:19.692Z,5.78
2019-02-15T00:18:25.221Z,5.73
2019-02-15T00:21:00.243Z,5.76
2019-02-15T00:23:29.616Z,5.75
2019-02-15T00:25:59.077Z,5.78
2019-02-15T00:28:28.525Z,5.72
2019-02-15T00:30:58.030Z,5.70
2019-02-15T00:33:27.431Z,5.69
2019-02-15T00:35:56.820Z,5.63
2019-02-15T00:38:26.249Z,5.67
2019-02-15T00:40:56.549Z,5.72
2019-02-15T00:43:25.928Z,5.73
2019-02-15T00:46:02.675Z,5.72
2019-02-15T00:48:32.116Z,5.73
2019-02-15T00:51:05.604Z,5.71
2019-02-15T00:53:42.006Z,5.74
2019-02-15T00:56:16.372Z,5.73
2019-02-15T00:58:56.635Z,5.76
2019-02-15T01:01:33.074Z,5.79
2019-02-15T01:04:24.766Z,5.79
2019-02-15T01:07:02.241Z,5.74
2019-02-15T01:09:40.488Z,5.77
2019-02-15T01:12:15.458Z,5.76
2019-02-15T01:14:44.945Z,5.74
2019-02-15T01:17:14.322Z,5.72
2019-02-15T01:19:43.821Z,5.67
2019-02-15T01:22:13.284Z,5.54
2019-02-15T01:24:42.713Z,5.56
2019-02-15T01:27:23.193Z,5.56
2019-02-15T01:32:03.949Z,5.58
2019-02-15T01:34:39.309Z,5.57
2019-02-15T01:37:15.821Z,5.57
2019-02-15T01:39:55.220Z,5.56
2019-02-15T01:42:29.663Z,5.56
2019-02-15T01:45:11.134Z,5.53
2019-02-15T01:47:44.373Z,5.47
2019-02-15T01:50:13.729Z,5.49
2019-02-15T01:52:43.246Z,5.50
2019-02-15T01:55:12.718Z,5.48
2019-02-15T01:57:42.118Z,5.35
2019-02-15T02:00:13.812Z,5.25
2019-02-15T02:02:43.253Z,5.18
2019-02-15T02:05:12.681Z,5.11
2019-02-15T02:07:42.076Z,5.16
2019-02-15T02:10:11.973Z,5.07
2019-02-15T02:12:41.378Z,5.10
2019-02-15T02:15:11.426Z,5.11
2019-02-15T02:17:40.966Z,5.07
2019-02-15T02:20:10.931Z,5.14
2019-02-15T02:22:40.332Z,5.16
2019-02-15T02:25:09.747Z,5.20
2019-02-15T02:27:45.900Z,5.17
2019-02-15T02:30:15.363Z,5.14
2019-02-15T02:32:44.765Z,5.15
2019-02-15T02:35:14.172Z,5.13
2019-02-15T02:37:43.697Z,5.15
2019-02-15T02:40:13.137Z,5.16
2019-02-15T02:42:42.495Z,5.19
2019-02-15T02:45:11.905Z,5.19
2019-02-15T02:47:41.356Z,5.17
2019-02-15T02:50:10.918Z,5.11
2019-02-15T02:52:40.325Z,5.10
2019-02-15T02:55:09.692Z,5.10
2019-02-15T02:57:39.058Z,5.08
2019-02-15T03:00:08.811Z,5.08
2019-02-15T03:02:38.256Z,5.08
2019-02-15T03:05:07.774Z,5.08
2019-02-15T03:07:37.188Z,5.08
2019-02-15T03:10:06.754Z,5.07
2019-02-15T03:12:36.262Z,5.11
2019-02-15T03:15:05.827Z,5.09
2019-02-15T03:17:35.301Z,5.13
2019-02-15T03:20:05.076Z,5.12
2019-02-15T03:22:34.473Z,5.12
2019-02-15T03:25:03.962Z,5.12
2019-02-15T03:27:33.419Z,5.09
2019-02-15T03:30:02.826Z,5.09
2019-02-15T03:32:32.240Z,5.08
2019-02-15T03:35:01.612Z,5.11
2019-02-15T03:37:35.094Z,5.11
2019-02-15T03:40:11.691Z,5.07
2019-02-15T03:42:41.131Z,5.01
2019-02-15T03:45:10.583Z,5.04
2019-02-15T03:47:39.990Z,5.05
2019-02-15T03:50:09.406Z,4.96
2019-02-15T03:52:38.905Z,4.90
2019-02-15T03:55:08.350Z,4.80
2019-02-15T03:57:37.818Z,4.53
2019-02-15T04:00:09.317Z,4.44
2019-02-15T04:02:38.756Z,4.36
2019-02-15T04:05:08.170Z,4.28
2019-02-15T04:07:37.588Z,4.18
2019-02-15T04:10:08.725Z,4.17
2019-02-15T04:12:38.207Z,4.16
2019-02-15T04:15:07.762Z,4.22
2019-02-15T04:17:37.220Z,4.30
2019-02-15T04:20:08.594Z,4.44
2019-02-15T04:22:38.046Z,4.49
2019-02-15T04:25:07.599Z,4.46
2019-02-15T04:27:36.985Z,4.48
2019-02-15T04:30:07.869Z,4.51
2019-02-15T04:32:37.236Z,4.50
2019-02-15T04:35:06.932Z,4.54
2019-02-15T04:37:36.405Z,4.58
2019-02-15T04:40:06.478Z,4.62
2019-02-15T04:42:35.965Z,4.63
2019-02-15T04:45:06.197Z,4.71
2019-02-15T04:47:35.590Z,4.74
2019-02-15T04:50:05.657Z,4.75
2019-02-15T04:52:35.112Z,4.78
2019-02-15T04:55:04.798Z,4.69
2019-02-15T04:57:34.341Z,4.72
2019-02-15T05:00:03.778Z,4.67
2019-02-15T05:02:33.197Z,4.66
2019-02-15T05:05:05.583Z,4.56
2019-02-15T05:07:35.006Z,4.60
2019-02-15T05:10:04.455Z,4.65
2019-02-15T05:12:33.873Z,4.68
2019-02-15T05:15:03.333Z,4.73
2019-02-15T05:17:32.697Z,4.74
2019-02-15T05:20:02.121Z,4.73
2019-02-15T05:22:31.504Z,4.75
2019-02-15T05:25:00.914Z,4.74
2019-02-15T05:27:30.343Z,4.71
2019-02-15T05:29:59.809Z,4.69
2019-02-15T05:32:29.277Z,4.67
2019-02-15T05:34:58.716Z,4.67
2019-02-15T05:37:28.140Z,4.69
2019-02-15T05:39:57.578Z,4.68
2019-02-15T05:42:27.011Z,4.66
2019-02-15T05:45:03.347Z,4.70
2019-02-15T05:47:25.878Z,4.68
2019-02-15T05:49:55.304Z,4.67
2019-02-15T05:52:24.741Z,4.62
2019-02-15T05:54:54.198Z,4.66
2019-02-15T05:57:26.448Z,4.72
2019-02-15T05:59:55.921Z,4.74
2019-02-15T06:02:25.394Z,4.71
2019-02-15T06:04:54.930Z,4.77
2019-02-15T06:07:24.385Z,4.80
2019-02-15T06:09:53.846Z,4.80
2019-02-15T06:12:23.496Z,4.83
2019-02-15T06:14:52.926Z,4.81
2019-02-15T06:17:22.365Z,4.84
2019-02-15T06:19:51.786Z,4.83
2019-02-15T06:22:21.357Z,4.71
2019-02-15T06:24:50.735Z,4.51
2019-02-15T06:27:20.133Z,4.45
2019-02-15T06:29:49.513Z,4.41
2019-02-15T06:32:18.982Z,4.26
2019-02-15T06:34:48.409Z,4.35
2019-02-15T06:37:17.805Z,4.25
2019-02-15T06:39:47.357Z,4.27
2019-02-15T06:42:16.857Z,4.06
2019-02-15T06:44:46.254Z,3.99
2019-02-15T06:47:15.922Z,3.95
2019-02-15T06:49:46.109Z,4.01
2019-02-15T06:52:15.410Z,4.08
2019-02-15T06:54:44.749Z,4.21
2019-02-15T06:57:14.214Z,4.40
2019-02-15T06:59:47.652Z,4.50
2019-02-15T07:02:23.955Z,4.60
2019-02-15T07:05:56.873Z,4.63
2019-02-15T07:08:26.277Z,4.62
2019-02-15T07:10:56.360Z,4.59
2019-02-15T07:13:25.683Z,4.69
2019-02-15T07:15:54.980Z,4.72
2019-02-15T07:18:24.331Z,4.70
2019-02-15T07:20:53.893Z,4.85
2019-02-15T07:23:23.865Z,4.95
2019-02-15T07:25:54.410Z,5.00
2019-02-15T07:28:26.872Z,4.89
2019-02-15T07:30:58.374Z,4.98
2019-02-15T07:33:27.738Z,4.95
2019-02-15T07:35:57.083Z,5.00
2019-02-15T07:38:26.469Z,4.98
2019-02-15T07:40:55.938Z,5.08
2019-02-15T07:43:25.298Z,5.13
2019-02-15T07:45:55.377Z,5.13
2019-02-15T07:48:24.754Z,5.14
2019-02-15T07:50:54.591Z,5.19
2019-02-15T07:53:23.591Z,5.25
2019-02-15T07:55:54.180Z,5.20
2019-02-15T07:58:23.513Z,5.30
2019-02-15T08:00:53.631Z,5.27
2019-02-15T08:03:23.735Z,5.36
2019-02-15T08:05:57.485Z,5.43
2019-02-15T08:08:27.616Z,5.52
2019-02-15T08:10:58.914Z,5.55
2019-02-15T08:13:28.756Z,5.60
2019-02-15T08:15:59.101Z,5.64
2019-02-15T08:18:28.399Z,5.69
2019-02-15T08:20:58.747Z,5.76
2019-02-15T08:23:28.654Z,5.79
2019-02-15T08:25:58.046Z,5.85
2019-02-15T08:28:27.397Z,5.86
2019-02-15T08:30:56.870Z,5.87
2019-02-15T08:33:26.169Z,5.91
2019-02-15T08:35:55.578Z,5.97
2019-02-15T08:38:24.928Z,5.96
2019-02-15T08:40:54.480Z,6.01
2019-02-15T08:43:23.788Z,6.05
2019-02-15T08:46:00.602Z,6.15
2019-02-15T08:48:22.476Z,6.17
2019-02-15T08:50:51.806Z,6.15
2019-02-15T08:53:21.204Z,6.22
2019-02-15T08:55:50.965Z,6.23
2019-02-15T08:58:20.286Z,6.27
2019-02-15T09:00:49.960Z,6.37
2019-02-15T09:03:19.353Z,6.49
2019-02-15T09:05:48.852Z,6.55
2019-02-15T09:08:18.203Z,6.62
2019-02-15T09:10:47.614Z,6.68
2019-02-15T09:13:17.073Z,6.74
2019-02-15T09:15:46.620Z,6.81
2019-02-15T09:18:17.740Z,6.81
2019-02-15T09:20:47.251Z,6.84
2019-02-15T09:23:16.602Z,6.85
2019-02-15T09:25:45.935Z,6.90
2019-02-15T09:28:24.249Z,6.83
2019-02-15T09:30:54.841Z,6.93
2019-02-15T09:33:24.785Z,6.94
2019-02-15T09:35:54.177Z,7.07
2019-02-15T09:38:23.576Z,7.14
2019-02-15T09:40:53.555Z,7.24
2019-02-15T09:43:24.860Z,7.29
2019-02-15T09:45:55.429Z,7.35
2019-02-15T09:48:24.782Z,7.43
2019-02-15T09:50:54.169Z,7.50
2019-02-15T09:53:23.799Z,7.60
2019-02-15T09:55:53.250Z,7.66
2019-02-15T09:58:23.109Z,7.72
2019-02-15T10:00:53.307Z,7.79
2019-02-15T10:03:23.688Z,7.85
2019-02-15T10:05:53.092Z,7.92
2019-02-15T10:08:24.004Z,7.97
2019-02-15T10:10:53.419Z,8.03
2019-02-15T10:13:22.847Z,8.05
2019-02-15T10:15:52.259Z,8.13
2019-02-15T10:18:21.608Z,8.22
2019-02-15T10:20:55.749Z,8.28
2019-02-15T10:23:25.939Z,8.33
2019-02-15T10:25:55.227Z,8.44
2019-02-15T10:28:25.363Z,8.51
2019-02-15T10:30:55.889Z,8.58
2019-02-15T10:33:25.391Z,8.60
2019-02-15T10:35:54.764Z,8.65
2019-02-15T10:38:25.303Z,8.72
2019-02-15T10:40:55.720Z,8.80
2019-02-15T10:43:25.869Z,8.88
2019-02-15T10:45:55.236Z,8.96
2019-02-15T10:48:24.614Z,9.01
2019-02-15T10:50:54.136Z,9.04
2019-02-15T10:53:23.849Z,9.12
2019-02-15T10:55:53.217Z,9.15
2019-02-15T10:58:22.614Z,9.23
2019-02-15T11:00:52.105Z,9.34
2019-02-15T11:03:22.017Z,9.42
2019-02-15T11:05:51.401Z,9.46
2019-02-15T11:08:20.752Z,9.54
2019-02-15T11:10:50.620Z,9.60
2019-02-15T11:13:20.000Z,9.67
2019-02-15T11:15:49.404Z,9.73
2019-02-15T11:18:18.852Z,9.77
2019-02-15T11:20:48.879Z,9.84
2019-02-15T11:23:18.790Z,9.94
2019-02-15T11:25:49.204Z,10.02
2019-02-15T11:28:19.186Z,10.09
2019-02-15T11:30:48.622Z,10.16
2019-02-15T11:33:19.551Z,10.24
2019-02-15T11:35:50.461Z,10.36
2019-02-15T11:38:20.349Z,10.46
2019-02-15T11:40:49.754Z,10.55
2019-02-15T11:43:19.076Z,10.63
2019-02-15T11:45:49.971Z,10.69
2019-02-15T11:48:21.339Z,10.77
2019-02-15T11:50:51.276Z,10.82
2019-02-15T11:53:20.672Z,10.91
2019-02-15T11:55:50.752Z,10.97
2019-02-15T11:58:20.546Z,11.06
2019-02-15T12:00:50.622Z,11.17
2019-02-15T12:03:20.076Z,11.25
2019-02-15T12:05:50.434Z,11.34
2019-02-15T12:08:19.777Z,11.44
2019-02-15T12:10:49.156Z,11.49
2019-02-15T12:13:18.613Z,11.55
2019-02-15T12:15:48.407Z,11.62
2019-02-15T12:18:17.826Z,11.65
2019-02-15T12:20:47.517Z,11.73
2019-02-15T12:23:16.865Z,11.83
2019-02-15T12:25:46.197Z,11.88
2019-02-15T12:28:16.193Z,11.92
2019-02-15T12:30:46.978Z,11.96
2019-02-15T12:33:16.369Z,12.01
2019-02-15T12:35:46.617Z,12.09
2019-02-15T12:38:17.075Z,12.12
2019-02-15T12:40:46.512Z,12.19
2019-02-15T12:43:15.851Z,12.28
2019-02-15T12:45:45.236Z,12.36
2019-02-15T12:48:14.791Z,12.44
2019-02-15T12:50:44.133Z,12.51
2019-02-15T12:53:19.279Z,12.59
2019-02-15T12:55:48.669Z,12.63
2019-02-15T12:58:18.175Z,12.74
2019-02-15T13:00:48.474Z,12.82
2019-02-15T13:03:17.846Z,12.91
2019-02-15T13:05:47.662Z,12.97
2019-02-15T13:08:18.939Z,13.06
2019-02-15T13:10:49.780Z,13.13
2019-02-15T13:13:19.108Z,13.20
2019-02-15T13:15:48.469Z,13.25
2019-02-15T13:18:17.838Z,13.29
2019-02-15T13:20:47.160Z,13.35
2019-02-15T13:23:17.500Z,13.38
2019-02-15T13:25:46.882Z,13.44
2019-02-15T13:28:17.061Z,13.51
2019-02-15T13:30:46.411Z,13.56
2019-02-15T13:33:15.732Z,13.56
2019-02-15T13:35:45.082Z,13.64
2019-02-15T13:38:14.557Z,13.70
2019-02-15T13:40:43.895Z,13.72
2019-02-15T13:43:13.942Z,13.74
2019-02-15T13:45:45.820Z,13.83
2019-02-15T13:48:16.101Z,13.93
2019-02-15T13:50:45.449Z,13.95
2019-02-15T13:53:15.801Z,14.01
2019-02-15T13:55:46.953Z,14.09
2019-02-15T13:58:17.110Z,14.19
2019-02-15T14:00:49.132Z,14.29
2019-02-15T14:03:18.484Z,14.38
2019-02-15T14:05:49.013Z,14.37
2019-02-15T14:08:18.437Z,14.46
2019-02-15T14:10:47.776Z,14.56
2019-02-15T14:13:17.139Z,14.69
2019-02-15T14:15:46.523Z,14.81
2019-02-15T14:18:15.916Z,14.94
2019-02-15T14:20:45.266Z,15.10
2019-02-15T14:23:14.671Z,15.25
2019-02-15T14:25:44.506Z,15.41
2019-02-15T14:28:14.694Z,15.65
2019-02-15T14:30:44.049Z,15.79
2019-02-15T14:33:13.425Z,15.89
2019-02-15T14:35:43.562Z,16.06
2019-02-15T14:38:13.069Z,16.31
2019-02-15T14:40:42.627Z,17.72
2019-02-15T14:43:12.955Z,19.63
2019-02-15T14:45:42.347Z,21.58
2019-02-15T14:48:11.820Z,23.92
2019-02-15T14:50:41.150Z,26.98
2019-02-15T14:53:10.588Z,30.65
2019-02-15T14:55:40.010Z,33.56
2019-02-15T14:58:09.515Z,35.20
2019-02-15T15:00:39.044Z,36.90
2019-02-15T15:03:08.438Z,35.50
2019-02-15T15:05:37.892Z,36.51
2019-02-15T15:08:07.381Z,36.61
2019-02-15T15:10:36.848Z,35.51
2019-02-15T15:13:07.152Z,33.45
2019-02-15T15:15:36.608Z,31.51
2019-02-15T15:18:12.714Z,31.33
2019-02-15T15:20:35.717Z,31.13
2019-02-15T15:23:05.762Z,28.51
2019-02-15T15:25:36.099Z,25.99
2019-02-15T15:28:09.168Z,23.29
2019-02-15T15:30:38.614Z,21.99
2019-02-15T15:33:08.314Z,21.23
2019-02-15T15:35:38.284Z,20.25
2019-02-15T15:38:08.377Z,19.11
2019-02-15T15:40:39.168Z,18.17
2019-02-15T15:43:09.294Z,17.49
2019-02-15T15:45:39.416Z,16.88
2019-02-15T15:48:08.921Z,16.36
2019-02-15T15:50:40.143Z,15.75
2019-02-15T15:53:08.014Z,15.46
2019-02-15T15:55:37.362Z,14.98
2019-02-15T15:58:06.765Z,14.89
2019-02-15T16:00:39.078Z,14.87
2019-02-15T16:03:05.868Z,14.59
2019-02-15T16:05:35.239Z,14.35
2019-02-15T16:08:04.632Z,14.20
2019-02-15T16:10:34.061Z,14.08
2019-02-15T16:13:03.584Z,13.93
2019-02-15T16:15:33.090Z,13.76
2019-02-15T16:18:02.500Z,13.61
2019-02-15T16:20:31.842Z,13.49
2019-02-15T16:23:01.256Z,13.47
2019-02-15T16:25:30.712Z,13.36
2019-02-15T16:28:00.194Z,13.33
2019-02-15T16:30:29.574Z,13.25
2019-02-15T16:32:59.006Z,13.14
2019-02-15T16:35:28.408Z,12.97
2019-02-15T16:37:57.854Z,12.82
2019-02-15T16:40:27.190Z,12.72
2019-02-15T16:42:56.649Z,12.67
2019-02-15T16:45:32.729Z,12.61
2019-02-15T16:48:02.106Z,12.54
2019-02-15T16:50:31.454Z,12.48
2019-02-15T16:53:00.826Z,12.34
2019-02-15T16:55:30.210Z,12.24
2019-02-15T16:57:59.581Z,12.20
2019-02-15T17:00:29.315Z,12.15
2019-02-15T17:02:58.758Z,12.09
2019-02-15T17:05:28.196Z,12.01
2019-02-15T17:08:00.573Z,11.95
2019-02-15T17:10:30.030Z,11.87
2019-02-15T17:12:59.494Z,11.82
2019-02-15T17:15:28.915Z,11.74
2019-02-15T17:17:58.382Z,11.68
2019-02-15T17:20:27.831Z,11.61
2019-02-15T17:22:57.279Z,11.56
2019-02-15T17:25:26.773Z,11.50
2019-02-15T17:27:56.144Z,11.44
2019-02-15T17:30:25.574Z,11.35
2019-02-15T17:32:55.014Z,11.31
2019-02-15T17:35:24.609Z,11.27
2019-02-15T17:37:53.969Z,11.23
2019-02-15T17:40:23.539Z,11.16
2019-02-15T17:42:52.960Z,11.15
2019-02-15T17:45:22.494Z,11.14
2019-02-15T17:47:51.845Z,11.12
2019-02-15T17:50:21.364Z,11.07
2019-02-15T17:52:50.934Z,11.03
2019-02-15T17:55:20.290Z,10.99
2019-02-15T17:57:49.612Z,10.98
2019-02-15T18:00:20.133Z,10.92
2019-02-15T18:02:50.269Z,10.89
2019-02-15T18:05:19.700Z,10.85
2019-02-15T18:07:51.311Z,10.81
2019-02-15T18:10:21.308Z,10.79
2019-02-15T18:12:50.676Z,10.73
2019-02-15T18:15:20.091Z,10.72
2019-02-15T18:17:49.604Z,10.69
2019-02-15T18:20:19.124Z,10.65
2019-02-15T18:22:48.512Z,10.62
2019-02-15T18:25:17.857Z,10.58
2019-02-15T18:27:47.243Z,10.54
2019-02-15T18:30:16.721Z,10.52
2019-02-15T18:32:46.080Z,10.49
2019-02-15T18:35:15.409Z,10.46
2019-02-15T18:37:47.240Z,10.43
2019-02-15T18:40:17.988Z,10.40
2019-02-15T18:42:49.065Z,10.37
2019-02-15T18:45:18.528Z,10.33
2019-02-15T18:47:48.209Z,10.32
2019-02-15T18:50:17.428Z,10.31
2019-02-15T18:52:47.556Z,10.28
2019-02-15T18:55:16.863Z,10.27
2019-02-15T18:57:46.789Z,10.26
2019-02-15T19:00:16.842Z,10.25
2019-02-15T19:02:46.339Z,10.24
2019-02-15T19:05:22.666Z,10.21
2019-02-15T19:07:52.057Z,10.19
2019-02-15T19:10:21.678Z,10.15
2019-02-15T19:12:51.032Z,10.13
2019-02-15T19:15:20.452Z,10.09
2019-02-15T19:17:49.835Z,10.07
2019-02-15T19:20:19.333Z,10.07
2019-02-15T19:22:49.738Z,10.04
2019-02-15T19:25:19.231Z,10.04
2019-02-15T19:27:48.618Z,10.03
2019-02-15T19:30:21.476Z,10.01
2019-02-15T19:32:50.845Z,9.98
2019-02-15T19:35:20.200Z,9.97
2019-02-15T19:37:49.689Z,9.93
2019-02-15T19:40:19.314Z,9.91
2019-02-15T19:42:50.879Z,9.90
2019-02-15T19:45:20.215Z,9.90
2019-02-15T19:47:49.848Z,9.89
2019-02-15T19:50:19.318Z,9.85
2019-02-15T19:52:48.996Z,9.84
2019-02-15T19:55:18.357Z,9.87
2019-02-15T19:57:47.838Z,9.85
2019-02-15T20:00:18.659Z,9.88
2019-02-15T20:02:48.116Z,9.88
2019-02-15T20:05:17.548Z,9.88
2019-02-15T20:07:46.920Z,9.86
2019-02-15T20:10:19.166Z,9.86
2019-02-15T20:12:48.653Z,9.87
2019-02-15T20:15:19.039Z,9.87
2019-02-15T20:17:48.449Z,9.88
2019-02-15T20:20:17.817Z,9.87
2019-02-15T20:22:47.277Z,9.87
2019-02-15T20:25:16.652Z,9.85
2019-02-15T20:27:47.063Z,9.84
2019-02-15T20:30:18.166Z,9.83
2019-02-15T20:32:47.538Z,9.78
2019-02-15T20:35:16.830Z,9.77
2019-02-15T20:37:46.310Z,9.77
2019-02-15T20:40:15.651Z,9.77
2019-02-15T20:42:45.005Z,9.76
2019-02-15T20:45:17.245Z,9.69
2019-02-15T20:47:46.672Z,9.68
2019-02-15T20:50:16.197Z,9.66
2019-02-15T20:52:45.673Z,9.63
2019-02-15T20:55:15.524Z,9.62
2019-02-15T20:57:46.284Z,9.61
2019-02-15T21:00:19.617Z,9.60
2019-02-15T21:02:49.083Z,9.60
2019-02-15T21:05:18.431Z,9.58
2019-02-15T21:07:48.174Z,9.56
2019-02-15T21:10:17.323Z,9.53
2019-02-15T21:12:46.637Z,9.53
2019-02-15T21:15:15.982Z,9.48
2019-02-15T21:17:45.351Z,9.45
2019-02-15T21:20:14.764Z,9.43
2019-02-15T21:22:44.990Z,9.41
2019-02-15T21:25:14.400Z,9.39
2019-02-15T21:27:43.697Z,9.38
2019-02-15T21:30:14.414Z,9.36
2019-02-15T21:32:44.294Z,9.35
2019-02-15T21:35:13.942Z,9.36
2019-02-15T21:37:43.316Z,9.37
2019-02-15T21:40:14.116Z,9.33
2019-02-15T21:42:43.649Z,9.34
2019-02-15T21:45:13.068Z,9.33
2019-02-15T21:47:42.444Z,9.29
2019-02-15T21:50:17.043Z,9.28
2019-02-15T21:52:44.431Z,9.26
2019-02-15T21:55:11.845Z,9.22
2019-02-15T21:57:41.248Z,9.22
2019-02-15T22:00:14.920Z,9.21
2019-02-15T22:02:44.291Z,9.18
2019-02-15T22:05:13.636Z,9.15
2019-02-15T22:07:43.107Z,9.13
2019-02-15T22:10:12.471Z,9.07
2019-02-15T22:12:41.869Z,9.07
2019-02-15T22:15:12.056Z,9.06
2019-02-15T22:17:41.439Z,9.03
2019-02-15T22:20:13.219Z,9.01
2019-02-15T22:22:42.616Z,8.99
2019-02-15T22:25:12.553Z,8.99
2019-02-15T22:27:42.108Z,8.99
2019-02-15T22:30:13.452Z,8.97
2019-02-15T22:32:42.898Z,8.96
2019-02-15T22:35:13.612Z,8.96
2019-02-15T22:37:43.426Z,8.94
2019-02-15T22:40:27.877Z,8.93
2019-02-15T22:42:58.552Z,8.89
2019-02-15T22:45:28.035Z,8.83
2019-02-15T22:47:57.406Z,8.84
2019-02-15T22:50:35.319Z,8.81
2019-02-15T22:52:56.815Z,8.79
2019-02-15T22:55:26.132Z,8.72
2019-02-15T22:57:55.508Z,8.70
2019-02-15T23:00:37.854Z,8.65
2019-02-15T23:03:08.195Z,8.61
2019-02-15T23:05:38.257Z,8.54
2019-02-15T23:08:07.574Z,8.48
2019-02-15T23:10:36.983Z,8.48
2019-02-15T23:13:06.382Z,8.44
2019-02-15T23:15:35.942Z,8.38
2019-02-15T23:18:05.316Z,8.33
2019-02-15T23:20:34.732Z,8.31
2019-02-15T23:23:04.180Z,8.33
2019-02-15T23:25:33.504Z,8.29
2019-02-15T23:28:02.884Z,8.24
2019-02-15T23:30:32.283Z,8.23
2019-02-15T23:33:02.228Z,8.22
2019-02-15T23:35:31.621Z,8.18
2019-02-15T23:38:01.072Z,8.11
2019-02-15T23:40:30.471Z,8.11
2019-02-15T23:43:00.017Z,8.08
2019-02-15T23:45:29.416Z,8.06
2019-02-15T23:47:59.556Z,8.05
2019-02-15T23:50:28.925Z,8.01
2019-02-15T23:52:59.613Z,7.97
2019-02-15T23:55:29.572Z,7.93
2019-02-15T23:57:58.913Z,7.89
